sensor_id;sensor_type;location;lat;lon;timestamp;temperature;humidity
22742;DHT22;11538;48.884;8.696;2023-12-04T00:01:17;-1.40;99.90
22742;DHT22;11538;48.884;8.696;2023-12-04T00:03:44;-1.40;99.90
22742;DHT22;11538;48.884;8.696;2023-12-04T00:06:12;-1.40;99.90
22742;DHT22;11538;48.884;8.696;2023-12-04T00:08:39;-1.40;99.90
22742;DHT22;11538;48.884;8.696;2023-12-04T00:11:06;-1.40;99.90
22742;DHT22;11538;48.884;8.696;2023-12-04T00:13:34;-1.40;99.90
22742;DHT22;11538;48.884;8.696;2023-12-04T00:16:02;-1.40;99.90
22742;DHT22;11538;48.884;8.696;2023-12-04T00:18:29;-1.40;99.90
22742;DHT22;11538;48.884;8.696;2023-12-04T00:20:56;-1.40;99.90
22742;DHT22;11538;48.884;8.696;2023-12-04T00:23:23;-1.50;99.90
22742;DHT22;11538;48.884;8.696;2023-12-04T00:25:51;-1.40;99.90
22742;DHT22;11538;48.884;8.696;2023-12-04T00:28:18;-1.50;99.90
22742;DHT22;11538;48.884;8.696;2023-12-04T00:30:45;-1.50;99.90
22742;DHT22;11538;48.884;8.696;2023-12-04T00:33:11;-1.40;99.90
22742;DHT22;11538;48.884;8.696;2023-12-04T00:35:39;-1.40;99.90
22742;DHT22;11538;48.884;8.696;2023-12-04T00:38:06;-1.40;99.90
22742;DHT22;11538;48.884;8.696;2023-12-04T00:40:33;-1.40;99.90
22742;DHT22;11538;48.884;8.696;2023-12-04T00:43:00;-1.40;99.90
22742;DHT22;11538;48.884;8.696;2023-12-04T00:45:27;-1.40;99.90
22742;DHT22;11538;48.884;8.696;2023-12-04T00:47:54;-1.40;99.90
22742;DHT22;11538;48.884;8.696;2023-12-04T00:50:21;-1.40;99.90
22742;DHT22;11538;48.884;8.696;2023-12-04T00:52:48;-1.40;99.90
22742;DHT22;11538;48.884;8.696;2023-12-04T00:55:15;-1.40;99.90
22742;DHT22;11538;48.884;8.696;2023-12-04T00:57:42;-1.40;99.90
22742;DHT22;11538;48.884;8.696;2023-12-04T01:00:09;-1.40;99.90
22742;DHT22;11538;48.884;8.696;2023-12-04T01:02:37;-1.40;99.90
22742;DHT22;11538;48.884;8.696;2023-12-04T01:05:04;-1.40;99.90
22742;DHT22;11538;48.884;8.696;2023-12-04T01:07:31;-1.50;99.90
22742;DHT22;11538;48.884;8.696;2023-12-04T01:09:58;-1.40;99.90
22742;DHT22;11538;48.884;8.696;2023-12-04T01:12:25;-1.50;99.90
22742;DHT22;11538;48.884;8.696;2023-12-04T01:14:52;-1.40;99.90
22742;DHT22;11538;48.884;8.696;2023-12-04T01:17:19;-1.40;99.90
22742;DHT22;11538;48.884;8.696;2023-12-04T01:19:46;-1.40;99.90
22742;DHT22;11538;48.884;8.696;2023-12-04T01:22:13;-1.40;99.90
22742;DHT22;11538;48.884;8.696;2023-12-04T01:24:40;-1.30;99.90
22742;DHT22;11538;48.884;8.696;2023-12-04T01:27:07;-1.30;99.90
22742;DHT22;11538;48.884;8.696;2023-12-04T01:29:33;-1.30;99.90
22742;DHT22;11538;48.884;8.696;2023-12-04T01:32:01;-1.20;99.90
22742;DHT22;11538;48.884;8.696;2023-12-04T01:34:28;-1.20;99.90
22742;DHT22;11538;48.884;8.696;2023-12-04T01:36:55;-1.20;99.90
22742;DHT22;11538;48.884;8.696;2023-12-04T01:39:22;-1.20;99.90
22742;DHT22;11538;48.884;8.696;2023-12-04T01:41:49;-1.20;99.90
22742;DHT22;11538;48.884;8.696;2023-12-04T01:44:16;-1.20;99.90
22742;DHT22;11538;48.884;8.696;2023-12-04T01:46:44;-1.20;99.90
22742;DHT22;11538;48.884;8.696;2023-12-04T01:49:11;-1.20;99.90
22742;DHT22;11538;48.884;8.696;2023-12-04T01:51:38;-1.20;99.90
22742;DHT22;11538;48.884;8.696;2023-12-04T01:54:06;-1.30;99.90
22742;DHT22;11538;48.884;8.696;2023-12-04T01:56:34;-1.30;99.90
22742;DHT22;11538;48.884;8.696;2023-12-04T01:59:03;-1.30;99.90
22742;DHT22;11538;48.884;8.696;2023-12-04T02:01:31;-1.30;99.90
22742;DHT22;11538;48.884;8.696;2023-12-04T02:03:59;-1.30;99.90
22742;DHT22;11538;48.884;8.696;2023-12-04T02:06:28;-1.30;99.90
22742;DHT22;11538;48.884;8.696;2023-12-04T02:08:56;-1.30;99.90
22742;DHT22;11538;48.884;8.696;2023-12-04T02:11:24;-1.20;99.90
22742;DHT22;11538;48.884;8.696;2023-12-04T02:13:51;-1.20;99.90
22742;DHT22;11538;48.884;8.696;2023-12-04T02:16:19;-1.20;99.90
22742;DHT22;11538;48.884;8.696;2023-12-04T02:18:50;-1.20;99.90
22742;DHT22;11538;48.884;8.696;2023-12-04T02:21:18;-1.20;99.90
22742;DHT22;11538;48.884;8.696;2023-12-04T02:23:52;-1.20;99.90
22742;DHT22;11538;48.884;8.696;2023-12-04T02:26:25;-1.20;99.90
22742;DHT22;11538;48.884;8.696;2023-12-04T02:29:01;-1.20;99.90
22742;DHT22;11538;48.884;8.696;2023-12-04T02:31:39;-1.20;99.90
22742;DHT22;11538;48.884;8.696;2023-12-04T02:34:08;-1.20;99.90
22742;DHT22;11538;48.884;8.696;2023-12-04T02:36:40;-1.20;99.90
22742;DHT22;11538;48.884;8.696;2023-12-04T02:39:09;-1.20;99.90
22742;DHT22;11538;48.884;8.696;2023-12-04T02:41:36;-1.20;99.90
22742;DHT22;11538;48.884;8.696;2023-12-04T02:44:03;-1.20;99.90
22742;DHT22;11538;48.884;8.696;2023-12-04T02:46:30;-1.20;99.90
22742;DHT22;11538;48.884;8.696;2023-12-04T02:48:57;-1.10;99.90
22742;DHT22;11538;48.884;8.696;2023-12-04T02:51:24;-1.10;99.90
22742;DHT22;11538;48.884;8.696;2023-12-04T02:53:53;-1.10;99.90
22742;DHT22;11538;48.884;8.696;2023-12-04T02:56:20;-1.10;99.90
22742;DHT22;11538;48.884;8.696;2023-12-04T02:58:47;-1.10;99.90
22742;DHT22;11538;48.884;8.696;2023-12-04T03:01:13;-1.10;99.90
22742;DHT22;11538;48.884;8.696;2023-12-04T03:03:40;-1.10;99.90
22742;DHT22;11538;48.884;8.696;2023-12-04T03:06:07;-1.10;99.90
22742;DHT22;11538;48.884;8.696;2023-12-04T03:08:34;-1.10;99.90
22742;DHT22;11538;48.884;8.696;2023-12-04T03:11:02;-1.10;99.90
22742;DHT22;11538;48.884;8.696;2023-12-04T03:13:30;-1.10;99.90
22742;DHT22;11538;48.884;8.696;2023-12-04T03:15:57;-1.10;99.90
22742;DHT22;11538;48.884;8.696;2023-12-04T03:18:24;-1.00;99.90
22742;DHT22;11538;48.884;8.696;2023-12-04T03:20:53;-1.00;99.90
22742;DHT22;11538;48.884;8.696;2023-12-04T03:23:20;-1.00;99.90
22742;DHT22;11538;48.884;8.696;2023-12-04T03:25:47;-1.00;99.90
22742;DHT22;11538;48.884;8.696;2023-12-04T03:28:13;-1.00;99.90
22742;DHT22;11538;48.884;8.696;2023-12-04T03:30:42;-1.00;99.90
22742;DHT22;11538;48.884;8.696;2023-12-04T03:33:12;-1.00;99.90
22742;DHT22;11538;48.884;8.696;2023-12-04T03:35:39;-1.00;99.90
22742;DHT22;11538;48.884;8.696;2023-12-04T03:38:06;-1.00;99.90
22742;DHT22;11538;48.884;8.696;2023-12-04T03:40:33;-1.00;99.90
22742;DHT22;11538;48.884;8.696;2023-12-04T03:43:00;-1.00;99.90
22742;DHT22;11538;48.884;8.696;2023-12-04T03:45:27;-1.00;99.90
22742;DHT22;11538;48.884;8.696;2023-12-04T03:47:54;-1.00;99.90
22742;DHT22;11538;48.884;8.696;2023-12-04T03:50:21;-1.00;99.90
22742;DHT22;11538;48.884;8.696;2023-12-04T03:52:48;-1.00;99.90
22742;DHT22;11538;48.884;8.696;2023-12-04T03:55:15;-1.00;99.90
22742;DHT22;11538;48.884;8.696;2023-12-04T03:57:42;-0.90;99.90
22742;DHT22;11538;48.884;8.696;2023-12-04T04:00:10;-0.90;99.90
22742;DHT22;11538;48.884;8.696;2023-12-04T04:02:43;-0.90;99.90
22742;DHT22;11538;48.884;8.696;2023-12-04T04:05:10;-0.90;99.90
22742;DHT22;11538;48.884;8.696;2023-12-04T04:07:37;-0.90;99.90
22742;DHT22;11538;48.884;8.696;2023-12-04T04:10:04;-0.90;99.90
22742;DHT22;11538;48.884;8.696;2023-12-04T04:12:32;-0.90;99.90
22742;DHT22;11538;48.884;8.696;2023-12-04T04:14:59;-0.90;99.90
22742;DHT22;11538;48.884;8.696;2023-12-04T04:17:25;-0.80;99.90
22742;DHT22;11538;48.884;8.696;2023-12-04T04:19:53;-0.80;99.90
22742;DHT22;11538;48.884;8.696;2023-12-04T04:22:24;-0.80;99.90
22742;DHT22;11538;48.884;8.696;2023-12-04T04:24:51;-0.80;99.90
22742;DHT22;11538;48.884;8.696;2023-12-04T04:27:19;-0.80;99.90
22742;DHT22;11538;48.884;8.696;2023-12-04T04:29:46;-0.80;99.90
22742;DHT22;11538;48.884;8.696;2023-12-04T04:32:13;-0.80;99.90
22742;DHT22;11538;48.884;8.696;2023-12-04T04:34:40;-0.80;99.90
22742;DHT22;11538;48.884;8.696;2023-12-04T04:37:07;-0.80;99.90
22742;DHT22;11538;48.884;8.696;2023-12-04T04:39:34;-0.80;99.90
22742;DHT22;11538;48.884;8.696;2023-12-04T04:42:01;-0.80;99.90
22742;DHT22;11538;48.884;8.696;2023-12-04T04:44:28;-0.80;99.90
22742;DHT22;11538;48.884;8.696;2023-12-04T04:46:55;-0.80;99.90
22742;DHT22;11538;48.884;8.696;2023-12-04T04:49:22;-0.80;99.90
22742;DHT22;11538;48.884;8.696;2023-12-04T04:51:49;-0.80;99.90
22742;DHT22;11538;48.884;8.696;2023-12-04T04:54:16;-0.80;99.90
22742;DHT22;11538;48.884;8.696;2023-12-04T04:56:43;-0.80;99.90
22742;DHT22;11538;48.884;8.696;2023-12-04T04:59:10;-0.80;99.90
22742;DHT22;11538;48.884;8.696;2023-12-04T05:01:36;-0.80;99.90
22742;DHT22;11538;48.884;8.696;2023-12-04T05:04:03;-0.80;99.90
22742;DHT22;11538;48.884;8.696;2023-12-04T05:06:30;-0.80;99.90
22742;DHT22;11538;48.884;8.696;2023-12-04T05:08:57;-0.80;99.90
22742;DHT22;11538;48.884;8.696;2023-12-04T05:11:24;-0.70;99.90
22742;DHT22;11538;48.884;8.696;2023-12-04T05:13:51;-0.70;99.90
22742;DHT22;11538;48.884;8.696;2023-12-04T05:16:18;-0.80;99.90
22742;DHT22;11538;48.884;8.696;2023-12-04T05:18:45;-0.70;99.90
22742;DHT22;11538;48.884;8.696;2023-12-04T05:21:12;-0.70;99.90
22742;DHT22;11538;48.884;8.696;2023-12-04T05:23:39;-0.70;99.90
22742;DHT22;11538;48.884;8.696;2023-12-04T05:26:07;-0.70;99.90
22742;DHT22;11538;48.884;8.696;2023-12-04T05:28:34;-0.70;99.90
22742;DHT22;11538;48.884;8.696;2023-12-04T05:31:01;-0.70;99.90
22742;DHT22;11538;48.884;8.696;2023-12-04T05:33:29;-0.70;99.90
22742;DHT22;11538;48.884;8.696;2023-12-04T05:35:56;-0.70;99.90
22742;DHT22;11538;48.884;8.696;2023-12-04T05:38:23;-0.70;99.90
22742;DHT22;11538;48.884;8.696;2023-12-04T05:40:50;-0.70;99.90
22742;DHT22;11538;48.884;8.696;2023-12-04T05:43:16;-0.70;99.90
22742;DHT22;11538;48.884;8.696;2023-12-04T05:45:45;-0.70;99.90
22742;DHT22;11538;48.884;8.696;2023-12-04T05:48:13;-0.80;99.90
22742;DHT22;11538;48.884;8.696;2023-12-04T05:50:40;-0.80;99.90
22742;DHT22;11538;48.884;8.696;2023-12-04T05:53:07;-0.80;99.90
22742;DHT22;11538;48.884;8.696;2023-12-04T05:55:34;-0.80;99.90
22742;DHT22;11538;48.884;8.696;2023-12-04T05:58:01;-0.80;99.90
22742;DHT22;11538;48.884;8.696;2023-12-04T06:00:28;-0.80;99.90
22742;DHT22;11538;48.884;8.696;2023-12-04T06:02:55;-0.80;99.90
22742;DHT22;11538;48.884;8.696;2023-12-04T06:05:22;-0.80;99.90
22742;DHT22;11538;48.884;8.696;2023-12-04T06:07:50;-0.80;99.90
22742;DHT22;11538;48.884;8.696;2023-12-04T06:10:17;-0.80;99.90
22742;DHT22;11538;48.884;8.696;2023-12-04T06:12:44;-0.80;99.90
22742;DHT22;11538;48.884;8.696;2023-12-04T06:15:11;-0.80;99.90
22742;DHT22;11538;48.884;8.696;2023-12-04T06:17:38;-0.90;99.90
22742;DHT22;11538;48.884;8.696;2023-12-04T06:20:05;-0.90;99.90
22742;DHT22;11538;48.884;8.696;2023-12-04T06:22:33;-0.80;99.90
22742;DHT22;11538;48.884;8.696;2023-12-04T06:25:00;-0.90;99.90
22742;DHT22;11538;48.884;8.696;2023-12-04T06:27:28;-0.90;99.90
22742;DHT22;11538;48.884;8.696;2023-12-04T06:29:55;-0.90;99.90
22742;DHT22;11538;48.884;8.696;2023-12-04T06:32:22;-0.90;99.90
22742;DHT22;11538;48.884;8.696;2023-12-04T06:34:49;-0.90;99.90
22742;DHT22;11538;48.884;8.696;2023-12-04T06:37:17;-0.90;99.90
22742;DHT22;11538;48.884;8.696;2023-12-04T06:39:45;-0.80;99.90
22742;DHT22;11538;48.884;8.696;2023-12-04T06:42:15;-0.80;99.90
22742;DHT22;11538;48.884;8.696;2023-12-04T06:44:42;-0.90;99.90
22742;DHT22;11538;48.884;8.696;2023-12-04T06:47:12;-0.90;99.90
22742;DHT22;11538;48.884;8.696;2023-12-04T06:49:43;-0.90;99.90
22742;DHT22;11538;48.884;8.696;2023-12-04T06:52:10;-0.90;99.90
22742;DHT22;11538;48.884;8.696;2023-12-04T06:54:37;-0.90;99.90
22742;DHT22;11538;48.884;8.696;2023-12-04T06:57:04;-0.90;99.90
22742;DHT22;11538;48.884;8.696;2023-12-04T06:59:31;-0.90;99.90
22742;DHT22;11538;48.884;8.696;2023-12-04T07:01:58;-0.90;99.90
22742;DHT22;11538;48.884;8.696;2023-12-04T07:04:25;-0.90;99.90
22742;DHT22;11538;48.884;8.696;2023-12-04T07:06:52;-0.90;99.90
22742;DHT22;11538;48.884;8.696;2023-12-04T07:09:19;-0.80;99.90
22742;DHT22;11538;48.884;8.696;2023-12-04T07:11:46;-0.80;99.90
22742;DHT22;11538;48.884;8.696;2023-12-04T07:14:14;-0.80;99.90
22742;DHT22;11538;48.884;8.696;2023-12-04T07:16:42;-0.70;99.90
22742;DHT22;11538;48.884;8.696;2023-12-04T07:19:10;-0.70;99.90
22742;DHT22;11538;48.884;8.696;2023-12-04T07:21:38;-0.70;99.90
22742;DHT22;11538;48.884;8.696;2023-12-04T07:24:06;-0.60;99.90
22742;DHT22;11538;48.884;8.696;2023-12-04T07:26:34;-0.60;99.90
22742;DHT22;11538;48.884;8.696;2023-12-04T07:29:02;-0.60;99.90
22742;DHT22;11538;48.884;8.696;2023-12-04T07:31:30;-0.60;99.90
22742;DHT22;11538;48.884;8.696;2023-12-04T07:33:57;-0.60;99.90
22742;DHT22;11538;48.884;8.696;2023-12-04T07:36:27;-0.60;99.90
22742;DHT22;11538;48.884;8.696;2023-12-04T07:38:54;-0.60;99.90
22742;DHT22;11538;48.884;8.696;2023-12-04T07:41:21;-0.60;99.90
22742;DHT22;11538;48.884;8.696;2023-12-04T07:43:49;-0.50;99.90
22742;DHT22;11538;48.884;8.696;2023-12-04T07:46:16;-0.50;99.90
22742;DHT22;11538;48.884;8.696;2023-12-04T07:48:43;-0.40;99.90
22742;DHT22;11538;48.884;8.696;2023-12-04T07:51:11;-0.40;99.90
22742;DHT22;11538;48.884;8.696;2023-12-04T07:53:38;-0.40;99.90
22742;DHT22;11538;48.884;8.696;2023-12-04T07:56:05;-0.40;99.90
22742;DHT22;11538;48.884;8.696;2023-12-04T07:58:32;-0.30;99.90
22742;DHT22;11538;48.884;8.696;2023-12-04T08:00:59;-0.30;99.90
22742;DHT22;11538;48.884;8.696;2023-12-04T08:03:26;-0.30;99.90
22742;DHT22;11538;48.884;8.696;2023-12-04T08:05:54;-0.30;99.90
22742;DHT22;11538;48.884;8.696;2023-12-04T08:08:21;-0.30;99.90
22742;DHT22;11538;48.884;8.696;2023-12-04T08:10:48;-0.20;99.90
22742;DHT22;11538;48.884;8.696;2023-12-04T08:13:15;-0.20;99.90
22742;DHT22;11538;48.884;8.696;2023-12-04T08:15:45;-0.20;99.90
22742;DHT22;11538;48.884;8.696;2023-12-04T08:18:12;-0.10;99.90
22742;DHT22;11538;48.884;8.696;2023-12-04T08:20:39;-0.10;99.90
22742;DHT22;11538;48.884;8.696;2023-12-04T08:23:07;-0.10;99.90
22742;DHT22;11538;48.884;8.696;2023-12-04T08:25:35;-0.10;99.90
22742;DHT22;11538;48.884;8.696;2023-12-04T08:28:06;-0.10;99.90
22742;DHT22;11538;48.884;8.696;2023-12-04T08:30:33;-0.10;99.90
22742;DHT22;11538;48.884;8.696;2023-12-04T08:33:00;0.00;99.90
22742;DHT22;11538;48.884;8.696;2023-12-04T08:35:27;0.00;99.90
22742;DHT22;11538;48.884;8.696;2023-12-04T08:37:54;0.00;99.90
22742;DHT22;11538;48.884;8.696;2023-12-04T08:40:21;0.10;99.90
22742;DHT22;11538;48.884;8.696;2023-12-04T08:42:48;0.10;99.90
22742;DHT22;11538;48.884;8.696;2023-12-04T08:45:15;0.20;99.90
22742;DHT22;11538;48.884;8.696;2023-12-04T08:47:45;0.20;99.90
22742;DHT22;11538;48.884;8.696;2023-12-04T08:50:13;0.20;99.90
22742;DHT22;11538;48.884;8.696;2023-12-04T08:52:39;0.20;99.90
22742;DHT22;11538;48.884;8.696;2023-12-04T08:55:09;0.30;99.90
22742;DHT22;11538;48.884;8.696;2023-12-04T08:57:36;0.30;99.90
22742;DHT22;11538;48.884;8.696;2023-12-04T09:00:04;0.30;99.90
22742;DHT22;11538;48.884;8.696;2023-12-04T09:02:32;0.40;99.90
22742;DHT22;11538;48.884;8.696;2023-12-04T09:04:59;0.40;99.90
22742;DHT22;11538;48.884;8.696;2023-12-04T09:07:26;0.40;99.90
22742;DHT22;11538;48.884;8.696;2023-12-04T09:10:13;0.50;99.90
22742;DHT22;11538;48.884;8.696;2023-12-04T09:13:00;0.50;99.90
22742;DHT22;11538;48.884;8.696;2023-12-04T09:15:27;0.50;99.90
22742;DHT22;11538;48.884;8.696;2023-12-04T09:17:55;0.50;99.90
22742;DHT22;11538;48.884;8.696;2023-12-04T09:20:23;0.50;99.90
22742;DHT22;11538;48.884;8.696;2023-12-04T09:22:50;0.50;99.90
22742;DHT22;11538;48.884;8.696;2023-12-04T09:25:23;0.50;99.90
22742;DHT22;11538;48.884;8.696;2023-12-04T09:27:50;0.60;99.90
22742;DHT22;11538;48.884;8.696;2023-12-04T09:30:17;0.70;99.90
22742;DHT22;11538;48.884;8.696;2023-12-04T09:32:45;0.70;99.90
22742;DHT22;11538;48.884;8.696;2023-12-04T09:35:12;0.80;99.90
22742;DHT22;11538;48.884;8.696;2023-12-04T09:37:39;0.80;99.90
22742;DHT22;11538;48.884;8.696;2023-12-04T09:40:07;0.90;99.90
22742;DHT22;11538;48.884;8.696;2023-12-04T09:42:35;0.90;99.90
22742;DHT22;11538;48.884;8.696;2023-12-04T09:45:03;1.00;99.90
22742;DHT22;11538;48.884;8.696;2023-12-04T09:47:32;1.10;99.90
22742;DHT22;11538;48.884;8.696;2023-12-04T09:50:00;1.20;99.90
22742;DHT22;11538;48.884;8.696;2023-12-04T09:52:28;1.30;99.90
22742;DHT22;11538;48.884;8.696;2023-12-04T09:54:57;1.30;99.90
22742;DHT22;11538;48.884;8.696;2023-12-04T09:57:24;1.30;99.90
22742;DHT22;11538;48.884;8.696;2023-12-04T09:59:52;1.30;99.90
22742;DHT22;11538;48.884;8.696;2023-12-04T10:02:19;1.20;99.90
22742;DHT22;11538;48.884;8.696;2023-12-04T10:04:48;1.20;99.90
22742;DHT22;11538;48.884;8.696;2023-12-04T10:07:15;1.30;99.90
22742;DHT22;11538;48.884;8.696;2023-12-04T10:09:44;1.30;99.90
22742;DHT22;11538;48.884;8.696;2023-12-04T10:12:11;1.40;99.90
22742;DHT22;11538;48.884;8.696;2023-12-04T10:14:38;1.40;99.90
22742;DHT22;11538;48.884;8.696;2023-12-04T10:17:15;1.40;99.90
22742;DHT22;11538;48.884;8.696;2023-12-04T10:19:44;1.40;99.90
22742;DHT22;11538;48.884;8.696;2023-12-04T10:22:11;1.50;99.90
22742;DHT22;11538;48.884;8.696;2023-12-04T10:24:40;1.40;99.90
22742;DHT22;11538;48.884;8.696;2023-12-04T10:27:09;1.50;99.90
22742;DHT22;11538;48.884;8.696;2023-12-04T10:29:42;1.50;99.90
22742;DHT22;11538;48.884;8.696;2023-12-04T10:32:12;1.60;99.90
22742;DHT22;11538;48.884;8.696;2023-12-04T10:34:41;1.60;99.90
22742;DHT22;11538;48.884;8.696;2023-12-04T10:37:10;1.60;99.90
22742;DHT22;11538;48.884;8.696;2023-12-04T10:39:51;1.60;99.90
22742;DHT22;11538;48.884;8.696;2023-12-04T10:42:29;1.70;99.90
22742;DHT22;11538;48.884;8.696;2023-12-04T10:44:58;1.70;99.90
22742;DHT22;11538;48.884;8.696;2023-12-04T10:47:28;1.80;99.90
22742;DHT22;11538;48.884;8.696;2023-12-04T10:49:56;1.80;99.90
22742;DHT22;11538;48.884;8.696;2023-12-04T10:52:23;1.80;99.90
22742;DHT22;11538;48.884;8.696;2023-12-04T10:54:51;1.90;99.90
22742;DHT22;11538;48.884;8.696;2023-12-04T10:57:25;1.90;99.90
22742;DHT22;11538;48.884;8.696;2023-12-04T10:59:58;1.80;99.90
22742;DHT22;11538;48.884;8.696;2023-12-04T11:02:33;1.90;99.90
22742;DHT22;11538;48.884;8.696;2023-12-04T11:05:07;1.90;99.90
22742;DHT22;11538;48.884;8.696;2023-12-04T11:07:44;1.90;99.90
22742;DHT22;11538;48.884;8.696;2023-12-04T11:10:49;2.00;99.90
22742;DHT22;11538;48.884;8.696;2023-12-04T11:13:27;2.00;99.90
22742;DHT22;11538;48.884;8.696;2023-12-04T11:16:27;2.00;99.90
22742;DHT22;11538;48.884;8.696;2023-12-04T11:19:01;2.00;99.90
22742;DHT22;11538;48.884;8.696;2023-12-04T11:21:36;2.10;99.90
22742;DHT22;11538;48.884;8.696;2023-12-04T11:24:06;2.10;99.90
22742;DHT22;11538;48.884;8.696;2023-12-04T11:26:34;2.20;99.90
22742;DHT22;11538;48.884;8.696;2023-12-04T11:29:03;2.20;99.90
22742;DHT22;11538;48.884;8.696;2023-12-04T11:31:31;2.20;99.90
22742;DHT22;11538;48.884;8.696;2023-12-04T11:34:02;2.20;99.90
22742;DHT22;11538;48.884;8.696;2023-12-04T11:36:30;2.20;99.90
22742;DHT22;11538;48.884;8.696;2023-12-04T11:38:57;2.30;99.90
22742;DHT22;11538;48.884;8.696;2023-12-04T11:41:27;2.30;99.90
22742;DHT22;11538;48.884;8.696;2023-12-04T11:43:57;2.30;99.90
22742;DHT22;11538;48.884;8.696;2023-12-04T11:46:26;2.30;99.90
22742;DHT22;11538;48.884;8.696;2023-12-04T11:48:56;2.30;99.90
22742;DHT22;11538;48.884;8.696;2023-12-04T11:54:14;2.30;99.90
22742;DHT22;11538;48.884;8.696;2023-12-04T11:57:20;2.30;99.90
22742;DHT22;11538;48.884;8.696;2023-12-04T11:59:48;2.30;99.90
22742;DHT22;11538;48.884;8.696;2023-12-04T12:02:16;2.30;99.90
22742;DHT22;11538;48.884;8.696;2023-12-04T12:04:44;2.30;99.90
22742;DHT22;11538;48.884;8.696;2023-12-04T12:07:14;2.40;99.90
22742;DHT22;11538;48.884;8.696;2023-12-04T12:09:41;2.40;99.90
22742;DHT22;11538;48.884;8.696;2023-12-04T12:12:09;2.40;99.90
22742;DHT22;11538;48.884;8.696;2023-12-04T12:14:36;2.40;99.90
22742;DHT22;11538;48.884;8.696;2023-12-04T12:17:03;2.40;99.90
22742;DHT22;11538;48.884;8.696;2023-12-04T12:19:30;2.50;99.90
22742;DHT22;11538;48.884;8.696;2023-12-04T12:21:57;2.50;99.90
22742;DHT22;11538;48.884;8.696;2023-12-04T12:24:24;2.50;99.90
22742;DHT22;11538;48.884;8.696;2023-12-04T12:26:54;2.50;99.90
22742;DHT22;11538;48.884;8.696;2023-12-04T12:29:22;2.50;99.90
22742;DHT22;11538;48.884;8.696;2023-12-04T12:31:50;2.60;99.90
22742;DHT22;11538;48.884;8.696;2023-12-04T12:34:17;2.60;99.90
22742;DHT22;11538;48.884;8.696;2023-12-04T12:36:45;2.60;99.90
22742;DHT22;11538;48.884;8.696;2023-12-04T12:39:12;2.60;99.90
22742;DHT22;11538;48.884;8.696;2023-12-04T12:41:49;2.60;99.90
22742;DHT22;11538;48.884;8.696;2023-12-04T12:44:17;2.60;99.90
22742;DHT22;11538;48.884;8.696;2023-12-04T12:46:48;2.60;99.90
22742;DHT22;11538;48.884;8.696;2023-12-04T12:49:23;2.60;99.90
22742;DHT22;11538;48.884;8.696;2023-12-04T12:52:07;2.60;99.90
22742;DHT22;11538;48.884;8.696;2023-12-04T12:54:41;2.70;99.90
22742;DHT22;11538;48.884;8.696;2023-12-04T12:57:10;2.60;99.90
22742;DHT22;11538;48.884;8.696;2023-12-04T12:59:38;2.70;99.90
22742;DHT22;11538;48.884;8.696;2023-12-04T13:02:07;2.70;99.90
22742;DHT22;11538;48.884;8.696;2023-12-04T13:04:36;2.70;99.90
22742;DHT22;11538;48.884;8.696;2023-12-04T13:07:05;2.70;99.90
22742;DHT22;11538;48.884;8.696;2023-12-04T13:09:34;2.70;99.90
22742;DHT22;11538;48.884;8.696;2023-12-04T13:12:06;2.60;99.90
22742;DHT22;11538;48.884;8.696;2023-12-04T13:14:34;2.60;99.90
22742;DHT22;11538;48.884;8.696;2023-12-04T13:17:03;2.60;99.90
22742;DHT22;11538;48.884;8.696;2023-12-04T13:19:30;2.60;99.90
22742;DHT22;11538;48.884;8.696;2023-12-04T13:22:01;2.60;99.90
22742;DHT22;11538;48.884;8.696;2023-12-04T13:24:31;2.70;99.90
22742;DHT22;11538;48.884;8.696;2023-12-04T13:26:58;2.70;99.90
22742;DHT22;11538;48.884;8.696;2023-12-04T13:29:25;2.70;99.90
22742;DHT22;11538;48.884;8.696;2023-12-04T13:31:52;2.80;99.90
22742;DHT22;11538;48.884;8.696;2023-12-04T13:34:19;2.80;99.90
22742;DHT22;11538;48.884;8.696;2023-12-04T13:36:46;2.80;99.90
22742;DHT22;11538;48.884;8.696;2023-12-04T13:39:13;2.80;99.90
22742;DHT22;11538;48.884;8.696;2023-12-04T13:41:47;2.80;99.90
22742;DHT22;11538;48.884;8.696;2023-12-04T13:44:32;2.90;99.90
22742;DHT22;11538;48.884;8.696;2023-12-04T13:47:00;2.90;99.90
22742;DHT22;11538;48.884;8.696;2023-12-04T13:49:27;2.90;99.90
22742;DHT22;11538;48.884;8.696;2023-12-04T13:51:54;2.90;99.90
22742;DHT22;11538;48.884;8.696;2023-12-04T13:54:21;2.90;99.90
22742;DHT22;11538;48.884;8.696;2023-12-04T13:56:55;2.90;99.90
22742;DHT22;11538;48.884;8.696;2023-12-04T13:59:23;2.90;99.90
22742;DHT22;11538;48.884;8.696;2023-12-04T14:01:51;3.00;99.90
22742;DHT22;11538;48.884;8.696;2023-12-04T14:04:19;3.00;99.90
22742;DHT22;11538;48.884;8.696;2023-12-04T14:06:47;3.00;99.90
22742;DHT22;11538;48.884;8.696;2023-12-04T14:09:15;3.10;99.90
22742;DHT22;11538;48.884;8.696;2023-12-04T14:11:43;3.10;99.90
22742;DHT22;11538;48.884;8.696;2023-12-04T14:14:14;3.10;99.90
22742;DHT22;11538;48.884;8.696;2023-12-04T14:16:41;3.10;99.90
22742;DHT22;11538;48.884;8.696;2023-12-04T14:19:08;3.20;99.90
22742;DHT22;11538;48.884;8.696;2023-12-04T14:21:36;3.20;99.90
22742;DHT22;11538;48.884;8.696;2023-12-04T14:24:03;3.20;99.90
22742;DHT22;11538;48.884;8.696;2023-12-04T14:26:31;3.20;99.90
22742;DHT22;11538;48.884;8.696;2023-12-04T14:28:58;3.30;99.90
22742;DHT22;11538;48.884;8.696;2023-12-04T14:31:27;3.30;99.90
22742;DHT22;11538;48.884;8.696;2023-12-04T14:33:54;3.30;99.90
22742;DHT22;11538;48.884;8.696;2023-12-04T14:36:21;3.30;99.90
22742;DHT22;11538;48.884;8.696;2023-12-04T14:38:48;3.30;99.90
22742;DHT22;11538;48.884;8.696;2023-12-04T14:41:15;3.30;99.90
22742;DHT22;11538;48.884;8.696;2023-12-04T14:43:42;3.40;99.90
22742;DHT22;11538;48.884;8.696;2023-12-04T14:46:10;3.40;99.90
22742;DHT22;11538;48.884;8.696;2023-12-04T14:48:38;3.40;99.90
22742;DHT22;11538;48.884;8.696;2023-12-04T14:51:09;3.40;99.90
22742;DHT22;11538;48.884;8.696;2023-12-04T14:53:40;3.40;99.90
22742;DHT22;11538;48.884;8.696;2023-12-04T14:56:13;3.50;99.90
22742;DHT22;11538;48.884;8.696;2023-12-04T14:59:02;3.40;99.90
22742;DHT22;11538;48.884;8.696;2023-12-04T15:01:32;3.40;99.90
22742;DHT22;11538;48.884;8.696;2023-12-04T15:04:05;3.40;99.90
22742;DHT22;11538;48.884;8.696;2023-12-04T15:06:50;3.40;99.90
22742;DHT22;11538;48.884;8.696;2023-12-04T15:09:36;3.40;99.90
22742;DHT22;11538;48.884;8.696;2023-12-04T15:12:22;3.50;99.90
22742;DHT22;11538;48.884;8.696;2023-12-04T15:15:15;3.40;99.90
22742;DHT22;11538;48.884;8.696;2023-12-04T15:18:02;3.40;99.90
22742;DHT22;11538;48.884;8.696;2023-12-04T15:20:48;3.40;99.90
22742;DHT22;11538;48.884;8.696;2023-12-04T15:23:15;3.40;99.90
22742;DHT22;11538;48.884;8.696;2023-12-04T15:25:43;3.40;99.90
22742;DHT22;11538;48.884;8.696;2023-12-04T15:28:10;3.40;99.90
22742;DHT22;11538;48.884;8.696;2023-12-04T15:30:40;3.40;99.90
22742;DHT22;11538;48.884;8.696;2023-12-04T15:33:08;3.40;99.90
22742;DHT22;11538;48.884;8.696;2023-12-04T15:35:35;3.40;99.90
22742;DHT22;11538;48.884;8.696;2023-12-04T15:38:04;3.40;99.90
22742;DHT22;11538;48.884;8.696;2023-12-04T15:40:31;3.40;99.90
22742;DHT22;11538;48.884;8.696;2023-12-04T15:42:58;3.40;99.90
22742;DHT22;11538;48.884;8.696;2023-12-04T15:45:25;3.40;99.90
22742;DHT22;11538;48.884;8.696;2023-12-04T15:47:52;3.40;99.90
22742;DHT22;11538;48.884;8.696;2023-12-04T15:50:19;3.40;99.90